Weather Underground® Station Historical Data


Station Historical Data For Bruceton, TN. (K3JAE's Weather Station - KTNBRUCE2)
Daily Summary for:  January 4, 2018 Units:  Both    English   Metric
« Previous Day
Next Day »
Daily Weekly Monthly Yearly Custom
  High: Low: Average:
Temperature: 24.6 °F /  -4.1 °C 10.7 °F /  -11.8 °C 17.6 °F /  -8 °C
Dew Point: 12.6 °F /  -10.8 °C 3.6 °F /  -15.8 °C 6.7 °F /  -14.1 °C
Humidity: 76% 44% 63%
Wind Speed: 11.5mph /  18.5km/h - 3.8mph /  6.1km/h
Wind Gust: 13.0mph /  20.9km/h - -
Wind- - West
Pressure: 30.43 in /  1030.4 hPa 30.26 in /  1024.6 hPa -
Precipitation: 0.00 in /  0 mm    
Historical Graphs
 
 
Tabular Data for:  January 4, 2018
Time Temperature Dew Point Pressure Wind Wind Speed Wind Gust Humidity Rainfall Rate (Hourly) solar Conditions
00:01 18.7 °F /  -7.4 °C 12.1 °F /  -11.1 °C 30.26in /  1024.6hPa NW 2.3mph /  3.7km/h 2.3mph /  3.7km/h 75% 0.00in /  0mm 0.0 W/m2 CLR
00:03 18.6 °F /  -7.4 °C 12.0 °F /  -11.1 °C 30.26in /  1024.6hPa NW 2.3mph /  3.7km/h 2.3mph /  3.7km/h 75% 0.00in /  0mm 0.0 W/m2 CLR
00:08 18.5 °F /  -7.5 °C 12.2 °F /  -11 °C 30.26in /  1024.6hPa NW 1.2mph /  1.9km/h 1.2mph /  1.9km/h 76% 0.00in /  0mm 0.0 W/m2 CLR
00:12 18.4 °F /  -7.6 °C 12.1 °F /  -11.1 °C 30.26in /  1024.6hPa NW 2.3mph /  3.7km/h 2.3mph /  3.7km/h 76% 0.00in /  0mm 0.0 W/m2 CLR
00:15 18.4 °F /  -7.6 °C 12.1 °F /  -11.1 °C 30.26in /  1024.6hPa NW 2.3mph /  3.7km/h 2.3mph /  3.7km/h 76% 0.00in /  0mm 0.0 W/m2 CLR
00:17 18.3 °F /  -7.6 °C 12.0 °F /  -11.1 °C 30.26in /  1024.6hPa NW 2.3mph /  3.7km/h 2.3mph /  3.7km/h 76% 0.00in /  0mm 0.0 W/m2 CLR
00:21 18.3 °F /  -7.6 °C 12.0 °F /  -11.1 °C 30.26in /  1024.6hPa NW 3.5mph /  5.6km/h 3.5mph /  5.6km/h 76% 0.00in /  0mm 0.0 W/m2 CLR
00:22 18.4 °F /  -7.6 °C 12.1 °F /  -11.1 °C 30.26in /  1024.6hPa NW 3.5mph /  5.6km/h 3.5mph /  5.6km/h 76% 0.00in /  0mm 0.0 W/m2 CLR
00:26 18.6 °F /  -7.4 °C 12.3 °F /  -10.9 °C 30.26in /  1024.6hPa NW 3.5mph /  5.6km/h 3.5mph /  5.6km/h 76% 0.00in /  0mm 0.0 W/m2 CLR
00:27 18.6 °F /  -7.4 °C 12.3 °F /  -10.9 °C 30.26in /  1024.6hPa NW 3.5mph /  5.6km/h 3.5mph /  5.6km/h 76% 0.00in /  0mm 0.0 W/m2 CLR
00:28 18.7 °F /  -7.4 °C 12.4 °F /  -10.9 °C 30.26in /  1024.6hPa NW 2.3mph /  3.7km/h 2.3mph /  3.7km/h 76% 0.00in /  0mm 0.0 W/m2 CLR
00:31 18.8 °F /  -7.3 °C 12.5 °F /  -10.8 °C 30.26in /  1024.6hPa NW 3.5mph /  5.6km/h 3.5mph /  5.6km/h 76% 0.00in /  0mm 0.0 W/m2 CLR
00:35 18.9 °F /  -7.3 °C 12.6 °F /  -10.8 °C 30.26in /  1024.6hPa NW 4.0mph /  6.4km/h 4.0mph /  6.4km/h 76% 0.00in /  0mm 0.0 W/m2 CLR
00:36 18.9 °F /  -7.3 °C 12.3 °F /  -10.9 °C 30.26in /  1024.6hPa NW 3.5mph /  5.6km/h 3.5mph /  5.6km/h 75% 0.00in /  0mm 0.0 W/m2 CLR
00:41 19.0 °F /  -7.2 °C 12.4 °F /  -10.9 °C 30.26in /  1024.6hPa NW 3.5mph /  5.6km/h 3.5mph /  5.6km/h 75% 0.00in /  0mm 0.0 W/m2 CLR
00:46 19.1 °F /  -7.2 °C 12.5 °F /  -10.8 °C 30.26in /  1024.6hPa NW 2.3mph /  3.7km/h 2.3mph /  3.7km/h 75% 0.00in /  0mm 0.0 W/m2 CLR
00:47 19.1 °F /  -7.2 °C 12.5 °F /  -10.8 °C 30.26in /  1024.6hPa NW 3.5mph /  5.6km/h 3.5mph /  5.6km/h 75% 0.00in /  0mm 0.0 W/m2 CLR
00:52 19.1 °F /  -7.2 °C 12.5 °F /  -10.8 °C 30.26in /  1024.6hPa NW 3.5mph /  5.6km/h 3.5mph /  5.6km/h 75% 0.00in /  0mm 0.0 W/m2 CLR
00:55 19.0 °F /  -7.2 °C 12.4 °F /  -10.9 °C 30.26in /  1024.6hPa NW 4.0mph /  6.4km/h 4.0mph /  6.4km/h 75% 0.00in /  0mm 0.0 W/m2 CLR
00:57 19.0 °F /  -7.2 °C 12.4 °F /  -10.9 °C 30.26in /  1024.6hPa NW 4.6mph /  7.4km/h 4.6mph /  7.4km/h 75% 0.00in /  0mm 0.0 W/m2 CLR
01:02 19.1 °F /  -7.2 °C 12.5 °F /  -10.8 °C 30.27in /  1024.9hPa NW 3.5mph /  5.6km/h 3.5mph /  5.6km/h 75% 0.00in /  0mm 0.0 W/m2 CLR
01:04 19.1 °F /  -7.2 °C 12.2 °F /  -11 °C 30.26in /  1024.6hPa NW 3.5mph /  5.6km/h 3.5mph /  5.6km/h 74% 0.00in /  0mm 0.0 W/m2 CLR
01:07 19.1 °F /  -7.2 °C 12.2 °F /  -11 °C 30.26in /  1024.6hPa NW 4.6mph /  7.4km/h 4.6mph /  7.4km/h 74% 0.00in /  0mm 0.0 W/m2 CLR
01:10 19.1 °F /  -7.2 °C 12.2 °F /  -11 °C 30.26in /  1024.6hPa NNW 3.5mph /  5.6km/h 3.5mph /  5.6km/h 74% 0.00in /  0mm 0.0 W/m2 CLR
01:15 19.2 °F /  -7.1 °C 12.0 °F /  -11.1 °C 30.26in /  1024.6hPa NE 8.1mph /  13km/h 8.1mph /  13km/h 73% 0.00in /  0mm 0.0 W/m2 CLR
01:19 19.2 °F /  -7.1 °C 12.0 °F /  -11.1 °C 30.26in /  1024.6hPa NW 4.6mph /  7.4km/h 4.6mph /  7.4km/h 73% 0.00in /  0mm 0.0 W/m2 CLR
01:21 19.2 °F /  -7.1 °C 11.6 °F /  -11.3 °C 30.27in /  1024.9hPa NW 3.5mph /  5.6km/h 3.5mph /  5.6km/h 72% 0.00in /  0mm 0.0 W/m2 CLR
01:26 19.2 °F /  -7.1 °C 11.6 °F /  -11.3 °C 30.27in /  1024.9hPa NW 6.9mph /  11.1km/h 6.9mph /  11.1km/h 72% 0.00in /  0mm 0.0 W/m2 CLR
01:31 19.2 °F /  -7.1 °C 11.3 °F /  -11.5 °C 30.27in /  1024.9hPa NW 5.8mph /  9.3km/h 5.8mph /  9.3km/h 71% 0.00in /  0mm 0.0 W/m2 CLR
01:32 19.2 °F /  -7.1 °C 11.3 °F /  -11.5 °C 30.27in /  1024.9hPa NW 5.8mph /  9.3km/h 5.8mph /  9.3km/h 71% 0.00in /  0mm 0.0 W/m2 CLR
01:35 19.1 °F /  -7.2 °C 11.2 °F /  -11.6 °C 30.27in /  1024.9hPa NW 4.6mph /  7.4km/h 4.6mph /  7.4km/h 71% 0.00in /  0mm 0.0 W/m2 CLR
01:37 19.1 °F /  -7.2 °C 11.6 °F /  -11.3 °C 30.27in /  1024.9hPa NW 9.2mph /  14.8km/h 9.2mph /  14.8km/h 72% 0.00in /  0mm 0.0 W/m2 CLR
01:39 19.1 °F /  -7.2 °C 11.2 °F /  -11.6 °C 30.27in /  1024.9hPa NW 3.5mph /  5.6km/h 3.5mph /  5.6km/h 71% 0.00in /  0mm 0.0 W/m2 CLR
01:42 19.0 °F /  -7.2 °C 11.1 °F /  -11.6 °C 30.28in /  1025.3hPa NW 5.8mph /  9.3km/h 6.4mph /  10.3km/h 71% 0.00in /  0mm 0.0 W/m2 CLR
01:44 19.0 °F /  -7.2 °C 10.8 °F /  -11.8 °C 30.28in /  1025.3hPa NW 10.4mph /  16.7km/h 10.4mph /  16.7km/h 70% 0.00in /  0mm 0.0 W/m2 CLR
01:48 19.0 °F /  -7.2 °C 10.8 °F /  -11.8 °C 30.28in /  1025.3hPa NW 8.1mph /  13km/h 8.1mph /  13km/h 70% 0.00in /  0mm 0.0 W/m2 CLR
01:51 19.0 °F /  -7.2 °C 10.5 °F /  -11.9 °C 30.28in /  1025.3hPa NW 10.4mph /  16.7km/h 10.4mph /  16.7km/h 69% 0.00in /  0mm 0.0 W/m2 CLR
01:55 19.0 °F /  -7.2 °C 10.5 °F /  -11.9 °C 30.28in /  1025.3hPa NNW 3.0mph /  4.8km/h 13.0mph /  20.9km/h 69% 0.00in /  0mm 0.0 W/m2 CLR
01:57 19.0 °F /  -7.2 °C 10.2 °F /  -12.1 °C 30.28in /  1025.3hPa NW 11.5mph /  18.5km/h 11.5mph /  18.5km/h 68% 0.00in /  0mm 0.0 W/m2 CLR
02:02 18.9 °F /  -7.3 °C 10.1 °F /  -12.2 °C 30.28in /  1025.3hPa NW 5.0mph /  8km/h 5.0mph /  8km/h 68% 0.00in /  0mm 0.0 W/m2 CLR
02:04 18.9 °F /  -7.3 °C 10.4 °F /  -12 °C 30.28in /  1025.3hPa NNW 4.6mph /  7.4km/h 4.6mph /  7.4km/h 69% 0.00in /  0mm 0.0 W/m2 CLR
02:07 18.8 °F /  -7.3 °C 10.0 °F /  -12.2 °C 30.28in /  1025.3hPa NW 3.5mph /  5.6km/h 3.5mph /  5.6km/h 68% 0.00in /  0mm 0.0 W/m2 CLR
02:09 18.8 °F /  -7.3 °C 10.3 °F /  -12.1 °C 30.28in /  1025.3hPa NW 3.5mph /  5.6km/h 3.5mph /  5.6km/h 69% 0.00in /  0mm 0.0 W/m2 CLR
02:13 18.6 °F /  -7.4 °C 10.1 °F /  -12.2 °C 30.28in /  1025.3hPa NNE 3.5mph /  5.6km/h 3.5mph /  5.6km/h 69% 0.00in /  0mm 0.0 W/m2 CLR
02:15 18.6 °F /  -7.4 °C 9.8 °F /  -12.3 °C 30.28in /  1025.3hPa NNE 3.5mph /  5.6km/h 3.5mph /  5.6km/h 68% 0.00in /  0mm 0.0 W/m2 CLR
02:18 18.5 °F /  -7.5 °C 9.7 °F /  -12.4 °C 30.28in /  1025.3hPa North 3.5mph /  5.6km/h 3.5mph /  5.6km/h 68% 0.00in /  0mm 0.0 W/m2 CLR
02:22 18.3 °F /  -7.6 °C 9.5 °F /  -12.5 °C 30.28in /  1025.3hPa North 6.0mph /  9.7km/h 6.0mph /  9.7km/h 68% 0.00in /  0mm 0.0 W/m2 CLR
02:27 18.3 °F /  -7.6 °C 9.2 °F /  -12.7 °C 30.28in /  1025.3hPa NW 10.4mph /  16.7km/h 10.4mph /  16.7km/h 67% 0.00in /  0mm 0.0 W/m2 CLR
02:28 18.3 °F /  -7.6 °C 9.2 °F /  -12.7 °C 30.28in /  1025.3hPa WNW 6.9mph /  11.1km/h 6.9mph /  11.1km/h 67% 0.00in /  0mm 0.0 W/m2 CLR
02:29 18.3 °F /  -7.6 °C 9.2 °F /  -12.7 °C 30.28in /  1025.3hPa NW 4.6mph /  7.4km/h 4.6mph /  7.4km/h 67% 0.00in /  0mm 0.0 W/m2 CLR
02:30 18.2 °F /  -7.7 °C 9.1 °F /  -12.7 °C 30.28in /  1025.3hPa NNW 6.9mph /  11.1km/h 6.9mph /  11.1km/h 67% 0.00in /  0mm 0.0 W/m2 CLR
02:35 18.1 °F /  -7.7 °C 8.6 °F /  -13 °C 30.28in /  1025.3hPa NW 6.0mph /  9.7km/h 6.0mph /  9.7km/h 66% 0.00in /  0mm 0.0 W/m2 CLR
02:36 18.1 °F /  -7.7 °C 8.6 °F /  -13 °C 30.28in /  1025.3hPa NW 10.4mph /  16.7km/h 10.4mph /  16.7km/h 66% 0.00in /  0mm 0.0 W/m2 CLR
02:41 17.9 °F /  -7.8 °C 8.5 °F /  -13.1 °C 30.28in /  1025.3hPa North 8.1mph /  13km/h 8.1mph /  13km/h 66% 0.00in /  0mm 0.0 W/m2 CLR
02:44 17.9 °F /  -7.8 °C 8.5 °F /  -13.1 °C 30.29in /  1025.6hPa NNE 8.1mph /  13km/h 8.1mph /  13km/h 66% 0.00in /  0mm 0.0 W/m2 CLR
02:49 17.8 °F /  -7.9 °C 8.4 °F /  -13.1 °C 30.29in /  1025.6hPa NW 8.1mph /  13km/h 8.1mph /  13km/h 66% 0.00in /  0mm 0.0 W/m2 CLR
02:50 17.7 °F /  -7.9 °C 8.3 °F /  -13.2 °C 30.29in /  1025.6hPa NNW 6.0mph /  9.7km/h 6.0mph /  9.7km/h 66% 0.00in /  0mm 0.0 W/m2 CLR
02:51 17.6 °F /  -8 °C 8.2 °F /  -13.2 °C 30.29in /  1025.6hPa NNW 8.1mph /  13km/h 8.1mph /  13km/h 66% 0.00in /  0mm 0.0 W/m2 CLR
02:52 17.6 °F /  -8 °C 8.2 °F /  -13.2 °C 30.29in /  1025.6hPa NW 8.0mph /  12.9km/h 8.0mph /  12.9km/h 66% 0.00in /  0mm 0.0 W/m2 CLR
02:57 17.5 °F /  -8.1 °C 8.1 °F /  -13.3 °C 30.29in /  1025.6hPa WNW 3.5mph /  5.6km/h 3.5mph /  5.6km/h 66% 0.00in /  0mm 0.0 W/m2 CLR
02:58 17.5 °F /  -8.1 °C 8.1 °F /  -13.3 °C 30.29in /  1025.6hPa WNW 3.5mph /  5.6km/h 3.5mph /  5.6km/h 66% 0.00in /  0mm 0.0 W/m2 CLR
02:59 17.4 °F /  -8.1 °C 8.3 °F /  -13.2 °C 30.29in /  1025.6hPa WNW 3.5mph /  5.6km/h 3.5mph /  5.6km/h 67% 0.00in /  0mm 0.0 W/m2 CLR
03:04 17.3 °F /  -8.2 °C 8.2 °F /  -13.2 °C 30.29in /  1025.6hPa NW 3.5mph /  5.6km/h 3.5mph /  5.6km/h 67% 0.00in /  0mm 0.0 W/m2 CLR
03:06 17.2 °F /  -8.2 °C 8.1 °F /  -13.3 °C 30.29in /  1025.6hPa North 4.6mph /  7.4km/h 4.6mph /  7.4km/h 67% 0.00in /  0mm 0.0 W/m2 CLR
03:09 17.0 °F /  -8.3 °C 7.9 °F /  -13.4 °C 30.29in /  1025.6hPa NNW 5.8mph /  9.3km/h 5.8mph /  9.3km/h 67% 0.00in /  0mm 0.0 W/m2 CLR
03:14 16.9 °F /  -8.4 °C 7.8 °F /  -13.4 °C 30.29in /  1025.6hPa NW 9.2mph /  14.8km/h 9.2mph /  14.8km/h 67% 0.00in /  0mm 0.0 W/m2 CLR
03:19 16.7 °F /  -8.5 °C 7.6 °F /  -13.6 °C 30.29in /  1025.6hPa NW 6.9mph /  11.1km/h 6.9mph /  11.1km/h 67% 0.00in /  0mm 0.0 W/m2 CLR
03:23 16.6 °F /  -8.6 °C 7.9 °F /  -13.4 °C 30.29in /  1025.6hPa NW 3.5mph /  5.6km/h 3.5mph /  5.6km/h 68% 0.00in /  0mm 0.0 W/m2 CLR
03:25 16.5 °F /  -8.6 °C 7.8 °F /  -13.4 °C 30.29in /  1025.6hPa NW 5.0mph /  8km/h 5.0mph /  8km/h 68% 0.00in /  0mm 0.0 W/m2 CLR
03:30 16.3 °F /  -8.7 °C 7.6 °F /  -13.6 °C 30.29in /  1025.6hPa NW 7.0mph /  11.3km/h 7.0mph /  11.3km/h 68% 0.00in /  0mm 0.0 W/m2 CLR
03:32 16.3 °F /  -8.7 °C 7.6 °F /  -13.6 °C 30.29in /  1025.6hPa NW 8.1mph /  13km/h 8.1mph /  13km/h 68% 0.00in /  0mm 0.0 W/m2 CLR
03:34 16.2 °F /  -8.8 °C 7.5 °F /  -13.6 °C 30.29in /  1025.6hPa NW 8.1mph /  13km/h 8.1mph /  13km/h 68% 0.00in /  0mm 0.0 W/m2 CLR
03:39 16.0 °F /  -8.9 °C 7.3 °F /  -13.7 °C 30.29in /  1025.6hPa NW 9.2mph /  14.8km/h 9.2mph /  14.8km/h 68% 0.00in /  0mm 0.0 W/m2 CLR
03:41 16.0 °F /  -8.9 °C 7.3 °F /  -13.7 °C 30.29in /  1025.6hPa NW 3.5mph /  5.6km/h 3.5mph /  5.6km/h 68% 0.00in /  0mm 0.0 W/m2 CLR
03:42 15.9 °F /  -8.9 °C 7.2 °F /  -13.8 °C 30.29in /  1025.6hPa WNW 4.6mph /  7.4km/h 4.6mph /  7.4km/h 68% 0.00in /  0mm 0.0 W/m2 CLR
03:47 15.8 °F /  -9 °C 7.1 °F /  -13.8 °C 30.28in /  1025.3hPa NNW 3.5mph /  5.6km/h 3.5mph /  5.6km/h 68% 0.00in /  0mm 0.0 W/m2 CLR
03:48 15.8 °F /  -9 °C 7.4 °F /  -13.7 °C 30.28in /  1025.3hPa NNW 4.0mph /  6.4km/h 4.0mph /  6.4km/h 69% 0.00in /  0mm 0.0 W/m2 CLR
03:51 15.7 °F /  -9.1 °C 7.0 °F /  -13.9 °C 30.29in /  1025.6hPa NW 6.9mph /  11.1km/h 6.9mph /  11.1km/h 68% 0.00in /  0mm 0.0 W/m2 CLR
03:56 15.6 °F /  -9.1 °C 7.2 °F /  -13.8 °C 30.29in /  1025.6hPa NNW 3.5mph /  5.6km/h 3.5mph /  5.6km/h 69% 0.00in /  0mm 0.0 W/m2 CLR
03:57 15.5 °F /  -9.2 °C 7.1 °F /  -13.8 °C 30.28in /  1025.3hPa NNW 4.6mph /  7.4km/h 4.6mph /  7.4km/h 69% 0.00in /  0mm 0.0 W/m2 CLR
03:58 15.5 °F /  -9.2 °C 7.1 °F /  -13.8 °C 30.29in /  1025.6hPa NNW 4.6mph /  7.4km/h 4.6mph /  7.4km/h 69% 0.00in /  0mm 0.0 W/m2 CLR
04:03 15.4 °F /  -9.2 °C 7.0 °F /  -13.9 °C 30.28in /  1025.3hPa NW 8.1mph /  13km/h 8.1mph /  13km/h 69% 0.00in /  0mm 0.0 W/m2 CLR
04:05 15.4 °F /  -9.2 °C 7.0 °F /  -13.9 °C 30.29in /  1025.6hPa NW 3.5mph /  5.6km/h 3.5mph /  5.6km/h 69% 0.00in /  0mm 0.0 W/m2 CLR
04:10 15.3 °F /  -9.3 °C 6.9 °F /  -13.9 °C 30.29in /  1025.6hPa North 3.5mph /  5.6km/h 3.5mph /  5.6km/h 69% 0.00in /  0mm 0.0 W/m2 CLR
04:11 15.2 °F /  -9.3 °C 6.8 °F /  -14 °C 30.28in /  1025.3hPa NW 4.6mph /  7.4km/h 4.6mph /  7.4km/h 69% 0.00in /  0mm 0.0 W/m2 CLR
04:16 15.1 °F /  -9.4 °C 7.1 °F /  -13.8 °C 30.29in /  1025.6hPa North 6.9mph /  11.1km/h 6.9mph /  11.1km/h 70% 0.00in /  0mm 0.0 W/m2 CLR
04:18 15.1 °F /  -9.4 °C 7.1 °F /  -13.8 °C 30.29in /  1025.6hPa NW 4.6mph /  7.4km/h 4.6mph /  7.4km/h 70% 0.00in /  0mm 0.0 W/m2 CLR
04:19 15.1 °F /  -9.4 °C 7.1 °F /  -13.8 °C 30.29in /  1025.6hPa North 4.6mph /  7.4km/h 4.6mph /  7.4km/h 70% 0.00in /  0mm 0.0 W/m2 CLR
04:24 15.0 °F /  -9.4 °C 7.0 °F /  -13.9 °C 30.29in /  1025.6hPa North 3.0mph /  4.8km/h 3.0mph /  4.8km/h 70% 0.00in /  0mm 0.0 W/m2 CLR
04:26 14.9 °F /  -9.5 °C 6.9 °F /  -13.9 °C 30.29in /  1025.6hPa North 3.5mph /  5.6km/h 3.5mph /  5.6km/h 70% 0.00in /  0mm 0.0 W/m2 CLR
04:31 14.8 °F /  -9.6 °C 6.8 °F /  -14 °C 30.29in /  1025.6hPa North 5.8mph /  9.3km/h 5.8mph /  9.3km/h 70% 0.00in /  0mm 0.0 W/m2 CLR
04:32 14.7 °F /  -9.6 °C 6.7 °F /  -14.1 °C 30.30in /  1026hPa North 3.5mph /  5.6km/h 3.5mph /  5.6km/h 70% 0.00in /  0mm 0.0 W/m2 CLR
04:33 14.7 °F /  -9.6 °C 7.0 °F /  -13.9 °C 30.29in /  1025.6hPa NNW 3.5mph /  5.6km/h 3.5mph /  5.6km/h 71% 0.00in /  0mm 0.0 W/m2 CLR
04:38 14.6 °F /  -9.7 °C 6.9 °F /  -13.9 °C 30.30in /  1026hPa NW 3.5mph /  5.6km/h 3.5mph /  5.6km/h 71% 0.00in /  0mm 0.0 W/m2 CLR
04:41 14.6 °F /  -9.7 °C 6.9 °F /  -13.9 °C 30.30in /  1026hPa NW 3.5mph /  5.6km/h 3.5mph /  5.6km/h 71% 0.00in /  0mm 0.0 W/m2 CLR
04:46 14.4 °F /  -9.8 °C 6.7 °F /  -14.1 °C 30.30in /  1026hPa NW 3.5mph /  5.6km/h 3.5mph /  5.6km/h 71% 0.00in /  0mm 0.0 W/m2 CLR
04:48 14.3 °F /  -9.8 °C 6.6 °F /  -14.1 °C 30.30in /  1026hPa NW 3.5mph /  5.6km/h 3.5mph /  5.6km/h 71% 0.00in /  0mm 0.0 W/m2 CLR
04:51 14.2 °F /  -9.9 °C 6.8 °F /  -14 °C 30.31in /  1026.3hPa NW 3.5mph /  5.6km/h 3.5mph /  5.6km/h 72% 0.00in /  0mm 0.0 W/m2 CLR
04:56 14.1 °F /  -9.9 °C 6.7 °F /  -14.1 °C 30.31in /  1026.3hPa NW 5.0mph /  8km/h 5.0mph /  8km/h 72% 0.00in /  0mm 0.0 W/m2 CLR
05:01 14.0 °F /  -10 °C 6.6 °F /  -14.1 °C 30.31in /  1026.3hPa WNW 3.5mph /  5.6km/h 3.5mph /  5.6km/h 72% 0.00in /  0mm 0.0 W/m2 CLR
05:03 13.9 °F /  -10.1 °C 6.5 °F /  -14.2 °C 30.31in /  1026.3hPa WNW 2.3mph /  3.7km/h 2.3mph /  3.7km/h 72% 0.00in /  0mm 0.0 W/m2 CLR
05:06 13.8 °F /  -10.1 °C 6.4 °F /  -14.2 °C 30.31in /  1026.3hPa WNW 3.5mph /  5.6km/h 3.5mph /  5.6km/h 72% 0.00in /  0mm 0.0 W/m2 CLR
05:11 13.7 °F /  -10.2 °C 6.6 °F /  -14.1 °C 30.31in /  1026.3hPa WNW 3.5mph /  5.6km/h 3.5mph /  5.6km/h 73% 0.00in /  0mm 0.0 W/m2 CLR
05:12 13.7 °F /  -10.2 °C 6.6 °F /  -14.1 °C 30.31in /  1026.3hPa NW 3.5mph /  5.6km/h 3.5mph /  5.6km/h 73% 0.00in /  0mm 0.0 W/m2 CLR
05:16 13.6 °F /  -10.2 °C 6.5 °F /  -14.2 °C 30.31in /  1026.3hPa NW 3.5mph /  5.6km/h 3.5mph /  5.6km/h 73% 0.00in /  0mm 0.0 W/m2 CLR
05:21 13.4 °F /  -10.3 °C 6.4 °F /  -14.2 °C 30.31in /  1026.3hPa NW 3.5mph /  5.6km/h 3.5mph /  5.6km/h 73% 0.00in /  0mm 0.0 W/m2 CLR
05:22 13.4 °F /  -10.3 °C 6.4 °F /  -14.2 °C 30.32in /  1026.6hPa NW 3.5mph /  5.6km/h 3.5mph /  5.6km/h 73% 0.00in /  0mm 0.0 W/m2 CLR
05:25 13.3 °F /  -10.4 °C 6.3 °F /  -14.3 °C 30.32in /  1026.6hPa NW 3.5mph /  5.6km/h 3.5mph /  5.6km/h 73% 0.00in /  0mm 0.0 W/m2 CLR
05:27 13.2 °F /  -10.4 °C 6.2 °F /  -14.3 °C 30.32in /  1026.6hPa NW 8.1mph /  13km/h 8.1mph /  13km/h 73% 0.00in /  0mm 0.0 W/m2 CLR
05:33 13.2 °F /  -10.4 °C 6.5 °F /  -14.2 °C 30.32in /  1026.6hPa North 4.6mph /  7.4km/h 4.6mph /  7.4km/h 74% 0.00in /  0mm 0.0 W/m2 CLR
05:36 13.2 °F /  -10.4 °C 6.5 °F /  -14.2 °C 30.32in /  1026.6hPa NW 3.5mph /  5.6km/h 3.5mph /  5.6km/h 74% 0.00in /  0mm 0.0 W/m2 CLR
05:40 13.1 °F /  -10.5 °C 6.4 °F /  -14.2 °C 30.33in /  1027hPa NW 3.5mph /  5.6km/h 3.5mph /  5.6km/h 74% 0.00in /  0mm 0.0 W/m2 CLR
05:43 13.1 °F /  -10.5 °C 6.4 °F /  -14.2 °C 30.33in /  1027hPa NW 2.3mph /  3.7km/h 2.3mph /  3.7km/h 74% 0.00in /  0mm 0.0 W/m2 CLR
05:46 13.0 °F /  -10.6 °C 6.3 °F /  -14.3 °C 30.33in /  1027hPa NW 2.3mph /  3.7km/h   74% 0.00in /  0mm 0.0 W/m2 CLR
05:49 13.0 °F /  -10.6 °C 6.6 °F /  -14.1 °C 30.33in /  1027hPa NW 1.2mph /  1.9km/h 1.2mph /  1.9km/h 75% 0.00in /  0mm 0.0 W/m2 CLR
05:51 12.9 °F /  -10.6 °C 6.5 °F /  -14.2 °C 30.33in /  1027hPa NW 3.5mph /  5.6km/h 3.5mph /  5.6km/h 75% 0.00in /  0mm 0.0 W/m2 CLR
05:56 12.8 °F /  -10.7 °C 6.4 °F /  -14.2 °C 30.33in /  1027hPa NW 3.5mph /  5.6km/h 3.5mph /  5.6km/h 75% 0.00in /  0mm 0.0 W/m2 CLR
05:57 12.7 °F /  -10.7 °C 6.3 °F /  -14.3 °C 30.33in /  1027hPa NW 3.5mph /  5.6km/h 3.5mph /  5.6km/h 75% 0.00in /  0mm 0.0 W/m2 CLR
06:02 12.6 °F /  -10.8 °C 6.2 °F /  -14.3 °C 30.34in /  1027.3hPa NW 2.3mph /  3.7km/h 2.3mph /  3.7km/h 75% 0.00in /  0mm 0.0 W/m2 CLR
06:05 12.5 °F /  -10.8 °C 6.1 °F /  -14.4 °C 30.34in /  1027.3hPa NNW 3.5mph /  5.6km/h 3.5mph /  5.6km/h 75% 0.00in /  0mm 0.0 W/m2 CLR
06:10 12.3 °F /  -10.9 °C 5.9 °F /  -14.5 °C 30.34in /  1027.3hPa NW 2.3mph /  3.7km/h 2.3mph /  3.7km/h 75% 0.00in /  0mm 0.0 W/m2 CLR
06:11 12.3 °F /  -10.9 °C 5.9 °F /  -14.5 °C 30.34in /  1027.3hPa NW 3.0mph /  4.8km/h 3.0mph /  4.8km/h 75% 0.00in /  0mm 0.0 W/m2 CLR
06:17 12.1 °F /  -11.1 °C 5.7 °F /  -14.6 °C 30.34in /  1027.3hPa NW 4.0mph /  6.4km/h 4.0mph /  6.4km/h 75% 0.00in /  0mm 0.0 W/m2 CLR
06:22 12.1 °F /  -11.1 °C 5.7 °F /  -14.6 °C 30.35in /  1027.7hPa North 4.6mph /  7.4km/h 4.6mph /  7.4km/h 75% 0.00in /  0mm 0.0 W/m2 CLR
06:23 12.0 °F /  -11.1 °C 5.6 °F /  -14.7 °C 30.35in /  1027.7hPa North 4.6mph /  7.4km/h 4.6mph /  7.4km/h 75% 0.00in /  0mm 0.0 W/m2 CLR
06:28 12.0 °F /  -11.1 °C 5.6 °F /  -14.7 °C 30.35in /  1027.7hPa NW 2.3mph /  3.7km/h 2.3mph /  3.7km/h 75% 0.00in /  0mm 0.0 W/m2 CLR
06:29 12.0 °F /  -11.1 °C 5.6 °F /  -14.7 °C 30.35in /  1027.7hPa North 5.8mph /  9.3km/h 5.8mph /  9.3km/h 75% 0.00in /  0mm 0.0 W/m2 CLR
06:34 11.9 °F /  -11.2 °C 5.2 °F /  -14.9 °C 30.35in /  1027.7hPa NNW 4.6mph /  7.4km/h 4.6mph /  7.4km/h 74% 0.00in /  0mm 0.0 W/m2 CLR
06:35 11.9 °F /  -11.2 °C 5.2 °F /  -14.9 °C 30.35in /  1027.7hPa NNE 8.1mph /  13km/h 8.1mph /  13km/h 74% 0.00in /  0mm 0.0 W/m2 CLR
06:40 11.8 °F /  -11.2 °C 5.1 °F /  -14.9 °C 30.35in /  1027.7hPa NW 4.6mph /  7.4km/h 4.6mph /  7.4km/h 74% 0.00in /  0mm 0.0 W/m2 CLR
06:41 11.8 °F /  -11.2 °C 5.1 °F /  -14.9 °C 30.36in /  1028hPa NW 3.5mph /  5.6km/h 3.5mph /  5.6km/h 74% 0.00in /  0mm 0.0 W/m2 CLR
06:46 11.7 °F /  -11.3 °C 5.0 °F /  -15 °C 30.36in /  1028hPa NNE 4.6mph /  7.4km/h 4.6mph /  7.4km/h 74% 0.00in /  0mm 0.0 W/m2 CLR
06:49 11.6 °F /  -11.3 °C 4.9 °F /  -15.1 °C 30.36in /  1028hPa North 3.0mph /  4.8km/h 3.0mph /  4.8km/h 74% 0.00in /  0mm 0.0 W/m2 CLR
06:50 11.6 °F /  -11.3 °C 4.9 °F /  -15.1 °C 30.36in /  1028hPa North 2.0mph /  3.2km/h 5.0mph /  8km/h 74% 0.00in /  0mm 0.0 W/m2 CLR
06:52 11.6 °F /  -11.3 °C 4.9 °F /  -15.1 °C 30.36in /  1028hPa North 4.0mph /  6.4km/h 4.0mph /  6.4km/h 74% 0.00in /  0mm 0.0 W/m2 CLR
06:55 11.5 °F /  -11.4 °C 4.8 °F /  -15.1 °C 30.37in /  1028.3hPa NNE 3.5mph /  5.6km/h 3.5mph /  5.6km/h 74% 0.00in /  0mm 0.0 W/m2 CLR
06:56 11.5 °F /  -11.4 °C 4.8 °F /  -15.1 °C 30.36in /  1028hPa North 4.6mph /  7.4km/h 4.6mph /  7.4km/h 74% 0.00in /  0mm 0.0 W/m2 CLR
06:58 11.5 °F /  -11.4 °C 4.8 °F /  -15.1 °C 30.36in /  1028hPa North 4.6mph /  7.4km/h 4.6mph /  7.4km/h 74% 0.00in /  0mm 0.0 W/m2 CLR
07:03 11.3 °F /  -11.5 °C 4.6 °F /  -15.2 °C 30.36in /  1028hPa North 3.5mph /  5.6km/h 3.5mph /  5.6km/h 74% 0.00in /  0mm 0.0 W/m2 CLR
07:05 11.3 °F /  -11.5 °C 4.3 °F /  -15.4 °C 30.36in /  1028hPa North 4.6mph /  7.4km/h 4.6mph /  7.4km/h 73% 0.00in /  0mm 5.0 W/m2 CLR
07:06 11.3 °F /  -11.5 °C 4.3 °F /  -15.4 °C 30.36in /  1028hPa NNW 4.6mph /  7.4km/h 4.6mph /  7.4km/h 73% 0.00in /  0mm 5.0 W/m2 CLR
07:11 11.2 °F /  -11.6 °C 4.2 °F /  -15.4 °C 30.36in /  1028hPa NW 3.5mph /  5.6km/h 3.5mph /  5.6km/h 73% 0.00in /  0mm 7.0 W/m2 CLR
07:16 11.1 °F /  -11.6 °C 4.1 °F /  -15.5 °C 30.37in /  1028.3hPa NNW 4.0mph /  6.4km/h 4.0mph /  6.4km/h 73% 0.00in /  0mm 9.0 W/m2 CLR
07:25 10.9 °F /  -11.7 °C 3.9 °F /  -15.6 °C 30.37in /  1028.3hPa NNW 3.5mph /  5.6km/h 3.5mph /  5.6km/h 73% 0.00in /  0mm 12.0 W/m2 CLR
07:30 10.9 °F /  -11.7 °C 3.9 °F /  -15.6 °C 30.37in /  1028.3hPa NW 3.5mph /  5.6km/h 4.3mph /  6.9km/h 73% 0.00in /  0mm 14.0 W/m2 CLR
07:31 10.9 °F /  -11.7 °C 3.9 °F /  -15.6 °C 30.37in /  1028.3hPa NW 5.0mph /  8km/h 5.0mph /  8km/h 73% 0.00in /  0mm 14.0 W/m2 CLR
07:34 10.8 °F /  -11.8 °C 3.8 °F /  -15.7 °C 30.37in /  1028.3hPa North 3.5mph /  5.6km/h 3.5mph /  5.6km/h 73% 0.00in /  0mm 16.0 W/m2 CLR
07:39 10.8 °F /  -11.8 °C 4.1 °F /  -15.5 °C 30.37in /  1028.3hPa NW 4.0mph /  6.4km/h 4.0mph /  6.4km/h 74% 0.00in /  0mm 23.0 W/m2 CLR
07:41 10.7 °F /  -11.8 °C 4.0 °F /  -15.6 °C 30.37in /  1028.3hPa NW 3.5mph /  5.6km/h 3.5mph /  5.6km/h 74% 0.00in /  0mm 25.0 W/m2 CLR
07:44 10.7 °F /  -11.8 °C 4.0 °F /  -15.6 °C 30.37in /  1028.3hPa NW 6.0mph /  9.7km/h 6.0mph /  9.7km/h 74% 0.00in /  0mm 25.0 W/m2 CLR
07:45 10.7 °F /  -11.8 °C 4.0 °F /  -15.6 °C 30.37in /  1028.3hPa NW 5.8mph /  9.3km/h 5.8mph /  9.3km/h 74% 0.00in /  0mm 26.0 W/m2 CLR
07:48 10.8 °F /  -11.8 °C 4.1 °F /  -15.5 °C 30.38in /  1028.7hPa NW 3.5mph /  5.6km/h 3.5mph /  5.6km/h 74% 0.00in /  0mm 28.0 W/m2 CLR
07:51 10.8 °F /  -11.8 °C 4.1 °F /  -15.5 °C 30.38in /  1028.7hPa NW 4.6mph /  7.4km/h 4.6mph /  7.4km/h 74% 0.00in /  0mm 30.0 W/m2 CLR
07:56 11.0 °F /  -11.7 °C 4.3 °F /  -15.4 °C 30.38in /  1028.7hPa NW 4.6mph /  7.4km/h 4.6mph /  7.4km/h 74% 0.00in /  0mm 37.0 W/m2 CLR
07:57 10.9 °F /  -11.7 °C 4.2 °F /  -15.4 °C 30.38in /  1028.7hPa NNE 3.5mph /  5.6km/h 3.5mph /  5.6km/h 74% 0.00in /  0mm 39.0 W/m2 CLR
08:02 11.1 °F /  -11.6 °C 4.4 °F /  -15.3 °C 30.38in /  1028.7hPa NW 4.6mph /  7.4km/h 4.6mph /  7.4km/h 74% 0.00in /  0mm 44.0 W/m2 CLR
08:07 11.3 °F /  -11.5 °C 4.6 °F /  -15.2 °C 30.38in /  1028.7hPa NW 3.5mph /  5.6km/h 3.5mph /  5.6km/h 74% 0.00in /  0mm 39.0 W/m2 CLR
08:12 11.4 °F /  -11.4 °C 4.7 °F /  -15.2 °C 30.38in /  1028.7hPa NW 6.9mph /  11.1km/h 6.9mph /  11.1km/h 74% 0.00in /  0mm 46.0 W/m2 CLR
08:13 11.4 °F /  -11.4 °C 4.4 °F /  -15.3 °C 30.38in /  1028.7hPa NNW 8.1mph /  13km/h 8.1mph /  13km/h 73% 0.00in /  0mm 65.0 W/m2 CLR
08:16 11.5 °F /  -11.4 °C 4.8 °F /  -15.1 °C 30.39in /  1029hPa NW 3.5mph /  5.6km/h 3.5mph /  5.6km/h 74% 0.00in /  0mm 56.0 W/m2 CLR
08:18 11.5 °F /  -11.4 °C 4.8 °F /  -15.1 °C 30.39in /  1029hPa NW 9.2mph /  14.8km/h 9.2mph /  14.8km/h 74% 0.00in /  0mm 60.0 W/m2 CLR
08:21 11.6 °F /  -11.3 °C 4.6 °F /  -15.2 °C 30.39in /  1029hPa NW 3.5mph /  5.6km/h 3.5mph /  5.6km/h 73% 0.00in /  0mm 56.0 W/m2 CLR
08:24 11.7 °F /  -11.3 °C 4.7 °F /  -15.2 °C 30.39in /  1029hPa North 4.6mph /  7.4km/h 4.6mph /  7.4km/h 73% 0.00in /  0mm 63.0 W/m2 CLR
08:29 11.8 °F /  -11.2 °C 4.8 °F /  -15.1 °C 30.39in /  1029hPa NNW 4.6mph /  7.4km/h 4.6mph /  7.4km/h 73% 0.00in /  0mm 60.0 W/m2 CLR
08:30 11.9 °F /  -11.2 °C 4.9 °F /  -15.1 °C 30.39in /  1029hPa NW 11.5mph /  18.5km/h 11.5mph /  18.5km/h 73% 0.00in /  0mm 91.0 W/m2 CLR
08:35 11.9 °F /  -11.2 °C 4.9 °F /  -15.1 °C 30.39in /  1029hPa North 3.5mph /  5.6km/h 3.5mph /  5.6km/h 73% 0.00in /  0mm 123.0 W/m2 CLR
08:36 11.9 °F /  -11.2 °C 4.9 °F /  -15.1 °C 30.39in /  1029hPa NW 4.0mph /  6.4km/h 4.0mph /  6.4km/h 73% 0.00in /  0mm 139.0 W/m2 CLR
08:42 12.2 °F /  -11 °C 5.2 °F /  -14.9 °C 30.39in /  1029hPa NW 8.1mph /  13km/h 8.1mph /  13km/h 73% 0.00in /  0mm 137.0 W/m2 CLR
08:48 12.6 °F /  -10.8 °C 5.6 °F /  -14.7 °C 30.40in /  1029.3hPa NNW 4.6mph /  7.4km/h 4.6mph /  7.4km/h 73% 0.00in /  0mm 155.0 W/m2 CLR
08:50 12.6 °F /  -10.8 °C 5.3 °F /  -14.8 °C 30.40in /  1029.3hPa NNW 4.6mph /  7.4km/h 4.6mph /  7.4km/h 72% 0.00in /  0mm 72.0 W/m2 CLR
08:56 12.8 °F /  -10.7 °C 5.5 °F /  -14.7 °C 30.41in /  1029.7hPa NW 6.0mph /  9.7km/h 6.0mph /  9.7km/h 72% 0.00in /  0mm 174.0 W/m2 CLR
09:00 12.8 °F /  -10.7 °C 5.2 °F /  -14.9 °C 30.41in /  1029.7hPa West 8.1mph /  13km/h 8.1mph /  13km/h 71% 0.00in /  0mm 146.0 W/m2 CLR
09:02 12.9 °F /  -10.6 °C 5.3 °F /  -14.8 °C 30.41in /  1029.7hPa WNW 6.9mph /  11.1km/h 6.9mph /  11.1km/h 71% 0.00in /  0mm 69.0 W/m2 CLR
09:08 13.1 °F /  -10.5 °C 5.1 °F /  -14.9 °C 30.41in /  1029.7hPa NNW 11.5mph /  18.5km/h 11.5mph /  18.5km/h 70% 0.00in /  0mm 123.0 W/m2 CLR
09:13 13.2 °F /  -10.4 °C 5.2 °F /  -14.9 °C 30.41in /  1029.7hPa NW 8.1mph /  13km/h 8.1mph /  13km/h 70% 0.00in /  0mm 229.0 W/m2 CLR
09:18 13.4 °F /  -10.3 °C 5.1 °F /  -14.9 °C 30.42in /  1030hPa NW 6.9mph /  11.1km/h 6.9mph /  11.1km/h 69% 0.00in /  0mm 190.0 W/m2 CLR
09:20 13.4 °F /  -10.3 °C 5.1 °F /  -14.9 °C 30.41in /  1029.7hPa WNW 4.6mph /  7.4km/h 4.6mph /  7.4km/h 69% 0.00in /  0mm 127.0 W/m2 CLR
09:21 13.4 °F /  -10.3 °C 5.1 °F /  -14.9 °C 30.41in /  1029.7hPa North 6.0mph /  9.7km/h 6.0mph /  9.7km/h 69% 0.00in /  0mm 74.0 W/m2 CLR
09:26 13.7 °F /  -10.2 °C 5.7 °F /  -14.6 °C 30.41in /  1029.7hPa WNW 8.1mph /  13km/h 8.1mph /  13km/h 70% 0.00in /  0mm 160.0 W/m2 CLR
09:27 13.8 °F /  -10.1 °C 5.8 °F /  -14.6 °C 30.41in /  1029.7hPa WNW 6.9mph /  11.1km/h 6.9mph /  11.1km/h 70% 0.00in /  0mm 232.0 W/m2 CLR
09:32 14.0 °F /  -10 °C 5.7 °F /  -14.6 °C 30.42in /  1030hPa NW 10.4mph /  16.7km/h 10.4mph /  16.7km/h 69% 0.00in /  0mm 186.0 W/m2 CLR
09:35 14.1 °F /  -9.9 °C 5.5 °F /  -14.7 °C 30.42in /  1030hPa WNW 4.6mph /  7.4km/h 4.6mph /  7.4km/h 68% 0.00in /  0mm 257.0 W/m2 CLR
09:42 14.3 °F /  -9.8 °C 5.7 °F /  -14.6 °C 30.42in /  1030hPa NW 10.4mph /  16.7km/h 10.4mph /  16.7km/h 68% 0.00in /  0mm 146.0 W/m2 CLR
09:45 14.4 °F /  -9.8 °C 5.4 °F /  -14.8 °C 30.42in /  1030hPa NW 5.8mph /  9.3km/h 5.8mph /  9.3km/h 67% 0.00in /  0mm 244.0 W/m2 CLR
09:50 14.6 °F /  -9.7 °C 6.0 °F /  -14.4 °C 30.42in /  1030hPa NW 8.0mph /  12.9km/h 8.0mph /  12.9km/h 68% 0.00in /  0mm 274.0 W/m2 CLR
09:51 14.7 °F /  -9.6 °C 6.0 °F /  -14.4 °C 30.42in /  1030hPa NNE 8.1mph /  13km/h 8.1mph /  13km/h 68% 0.00in /  0mm 227.0 W/m2 CLR
09:56 15.0 °F /  -9.4 °C 6.0 °F /  -14.4 °C 30.42in /  1030hPa NNW 4.0mph /  6.4km/h 4.0mph /  6.4km/h 67% 0.00in /  0mm 84.0 W/m2 CLR
10:01 15.3 °F /  -9.3 °C 6.0 °F /  -14.4 °C 30.42in /  1030hPa NW 8.1mph /  13km/h 8.1mph /  13km/h 66% 0.00in /  0mm 253.0 W/m2 CLR
10:03 15.5 °F /  -9.2 °C 6.2 °F /  -14.3 °C 30.42in /  1030hPa NW 3.5mph /  5.6km/h 3.5mph /  5.6km/h 66% 0.00in /  0mm 285.0 W/m2 CLR
10:08 15.9 °F /  -8.9 °C 6.5 °F /  -14.2 °C 30.42in /  1030hPa NW 8.1mph /  13km/h 8.1mph /  13km/h 66% 0.00in /  0mm 271.0 W/m2 CLR
10:12 16.1 °F /  -8.8 °C 6.1 °F /  -14.4 °C 30.42in /  1030hPa NW 6.9mph /  11.1km/h 6.9mph /  11.1km/h 64% 0.00in /  0mm 364.0 W/m2 CLR
10:17 16.3 °F /  -8.7 °C 6.2 °F /  -14.3 °C 30.42in /  1030hPa North 6.9mph /  11.1km/h 6.9mph /  11.1km/h 64% 0.00in /  0mm 276.0 W/m2 CLR
10:19 16.2 °F /  -8.8 °C 5.8 °F /  -14.6 °C 30.42in /  1030hPa NNE 4.6mph /  7.4km/h 4.6mph /  7.4km/h 63% 0.00in /  0mm 274.0 W/m2 CLR
10:22 16.4 °F /  -8.7 °C 6.0 °F /  -14.4 °C 30.42in /  1030hPa NNW 3.5mph /  5.6km/h 3.5mph /  5.6km/h 63% 0.00in /  0mm 265.0 W/m2 CLR
10:24 16.5 °F /  -8.6 °C 6.1 °F /  -14.4 °C 30.42in /  1030hPa NNE 5.8mph /  9.3km/h 5.8mph /  9.3km/h 63% 0.00in /  0mm 311.0 W/m2 CLR
10:30 16.4 °F /  -8.7 °C 5.6 °F /  -14.7 °C 30.42in /  1030hPa NE 5.8mph /  9.3km/h 5.8mph /  9.3km/h 62% 0.00in /  0mm 401.0 W/m2 CLR
10:35 16.7 °F /  -8.5 °C 6.3 °F /  -14.3 °C 30.41in /  1029.7hPa NW 3.5mph /  5.6km/h 3.5mph /  5.6km/h 63% 0.00in /  0mm 295.0 W/m2 CLR
10:36 16.8 °F /  -8.4 °C 6.4 °F /  -14.2 °C 30.42in /  1030hPa NW 8.1mph /  13km/h 8.1mph /  13km/h 63% 0.00in /  0mm 230.0 W/m2 CLR
10:41 17.3 °F /  -8.2 °C 6.5 °F /  -14.2 °C 30.41in /  1029.7hPa NNW 6.0mph /  9.7km/h 6.0mph /  9.7km/h 62% 0.00in /  0mm 308.0 W/m2 CLR
10:45 17.4 °F /  -8.1 °C 6.2 °F /  -14.3 °C 30.41in /  1029.7hPa NNE 4.6mph /  7.4km/h 4.6mph /  7.4km/h 61% 0.00in /  0mm 257.0 W/m2 CLR
10:47 17.4 °F /  -8.1 °C 6.2 °F /  -14.3 °C 30.41in /  1029.7hPa NNE 4.0mph /  6.4km/h 4.0mph /  6.4km/h 61% 0.00in /  0mm 223.0 W/m2 CLR
10:51 17.8 °F /  -7.9 °C 6.6 °F /  -14.1 °C 30.41in /  1029.7hPa North 3.5mph /  5.6km/h 3.5mph /  5.6km/h 61% 0.00in /  0mm 223.0 W/m2 CLR
10:56 18.2 °F /  -7.7 °C 6.6 °F /  -14.1 °C 30.41in /  1029.7hPa WNW 5.8mph /  9.3km/h 5.8mph /  9.3km/h 60% 0.00in /  0mm 320.0 W/m2 CLR
10:58 18.3 °F /  -7.6 °C 6.7 °F /  -14.1 °C 30.41in /  1029.7hPa WNW 3.5mph /  5.6km/h 3.5mph /  5.6km/h 60% 0.00in /  0mm 341.0 W/m2 CLR
11:03 18.5 °F /  -7.5 °C 6.9 °F /  -13.9 °C 30.41in /  1029.7hPa NW 8.1mph /  13km/h 8.1mph /  13km/h 60% 0.00in /  0mm 404.0 W/m2 CLR
11:05 18.7 °F /  -7.4 °C 6.7 °F /  -14.1 °C 30.41in /  1029.7hPa WNW 10.0mph /  16.1km/h 10.0mph /  16.1km/h 59% 0.00in /  0mm 415.0 W/m2 CLR
11:10 19.1 °F /  -7.2 °C 6.7 °F /  -14.1 °C 30.41in /  1029.7hPa NNE 5.8mph /  9.3km/h 5.8mph /  9.3km/h 58% 0.00in /  0mm 469.0 W/m2 CLR
11:15 19.3 °F /  -7.1 °C 6.9 °F /  -13.9 °C 30.41in /  1029.7hPa NW 6.0mph /  9.7km/h 6.0mph /  9.7km/h 58% 0.00in /  0mm 473.0 W/m2 CLR
11:19 19.5 °F /  -6.9 °C 6.7 °F /  -14.1 °C 30.41in /  1029.7hPa NW 4.6mph /  7.4km/h 4.6mph /  7.4km/h 57% 0.00in /  0mm 459.0 W/m2 CLR
11:20 19.6 °F /  -6.9 °C 6.8 °F /  -14 °C 30.40in /  1029.3hPa NW 4.6mph /  7.4km/h 4.6mph /  7.4km/h 57% 0.00in /  0mm 476.0 W/m2 CLR
11:23 19.7 °F /  -6.8 °C 6.9 °F /  -13.9 °C 30.40in /  1029.3hPa NW 6.9mph /  11.1km/h 6.9mph /  11.1km/h 57% 0.00in /  0mm 512.0 W/m2 CLR
11:28 20.1 °F /  -6.6 °C 6.9 °F /  -13.9 °C 30.40in /  1029.3hPa NNW 5.8mph /  9.3km/h 5.8mph /  9.3km/h 56% 0.00in /  0mm 512.0 W/m2 CLR
11:29 20.1 °F /  -6.6 °C 6.9 °F /  -13.9 °C 30.40in /  1029.3hPa NNW 5.0mph /  8km/h 5.0mph /  8km/h 56% 0.00in /  0mm 512.0 W/m2 CLR
11:34 20.4 °F /  -6.4 °C 7.2 °F /  -13.8 °C 30.40in /  1029.3hPa NNE 6.0mph /  9.7km/h 6.0mph /  9.7km/h 56% 0.00in /  0mm 513.0 W/m2 CLR
11:35 20.5 °F /  -6.4 °C 7.3 °F /  -13.7 °C 30.40in /  1029.3hPa North 5.8mph /  9.3km/h 5.8mph /  9.3km/h 56% 0.00in /  0mm 517.0 W/m2 CLR
11:41 20.1 °F /  -6.6 °C 6.9 °F /  -13.9 °C 30.39in /  1029hPa NNW 6.9mph /  11.1km/h 6.9mph /  11.1km/h 56% 0.00in /  0mm 520.0 W/m2 CLR
11:46 20.3 °F /  -6.5 °C 6.7 °F /  -14.1 °C 30.39in /  1029hPa NW 8.1mph /  13km/h 8.1mph /  13km/h 55% 0.00in /  0mm 526.0 W/m2 CLR
11:48 20.7 °F /  -6.3 °C 7.1 °F /  -13.8 °C 30.39in /  1029hPa NW 6.9mph /  11.1km/h 6.9mph /  11.1km/h 55% 0.00in /  0mm 520.0 W/m2 CLR
11:53 21.3 °F /  -5.9 °C 6.8 °F /  -14 °C 30.39in /  1029hPa NNW 9.2mph /  14.8km/h 9.2mph /  14.8km/h 53% 0.00in /  0mm 524.0 W/m2 CLR
11:58 21.5 °F /  -5.8 °C 6.6 °F /  -14.1 °C 30.38in /  1028.7hPa WNW 8.0mph /  12.9km/h 8.0mph /  12.9km/h 52% 0.00in /  0mm 526.0 W/m2 CLR
12:03 21.7 °F /  -5.7 °C 6.8 °F /  -14 °C 30.38in /  1028.7hPa WNW 3.5mph /  5.6km/h 3.5mph /  5.6km/h 52% 0.00in /  0mm 524.0 W/m2 CLR
12:04 21.7 °F /  -5.7 °C 7.2 °F /  -13.8 °C 30.38in /  1028.7hPa NNW 3.5mph /  5.6km/h 3.5mph /  5.6km/h 53% 0.00in /  0mm 524.0 W/m2 CLR
12:10 21.9 °F /  -5.6 °C 6.5 °F /  -14.2 °C 30.37in /  1028.3hPa NNW 3.0mph /  4.8km/h 5.0mph /  8km/h 51% 0.00in /  0mm 520.0 W/m2 CLR
12:15 22.2 °F /  -5.4 °C 6.4 °F /  -14.2 °C 30.38in /  1028.7hPa WNW 7.0mph /  11.3km/h 7.0mph /  11.3km/h 50% 0.00in /  0mm 522.0 W/m2 CLR
12:20 22.6 °F /  -5.2 °C 6.7 °F /  -14.1 °C 30.38in /  1028.7hPa NNW 9.2mph /  14.8km/h 9.2mph /  14.8km/h 50% 0.00in /  0mm 520.0 W/m2 CLR
12:21 22.6 °F /  -5.2 °C 6.7 °F /  -14.1 °C 30.38in /  1028.7hPa NW 4.6mph /  7.4km/h 4.6mph /  7.4km/h 50% 0.00in /  0mm 522.0 W/m2 CLR
12:27 22.7 °F /  -5.2 °C 6.4 °F /  -14.2 °C 30.38in /  1028.7hPa WNW 3.5mph /  5.6km/h 3.5mph /  5.6km/h 49% 0.00in /  0mm 519.0 W/m2 CLR
12:28 22.8 °F /  -5.1 °C 6.5 °F /  -14.2 °C 30.37in /  1028.3hPa NW 8.1mph /  13km/h 8.1mph /  13km/h 49% 0.00in /  0mm 513.0 W/m2 CLR
12:33 23.1 °F /  -4.9 °C 6.3 °F /  -14.3 °C 30.38in /  1028.7hPa NW 6.0mph /  9.7km/h 6.0mph /  9.7km/h 48% 0.00in /  0mm 512.0 W/m2 CLR
12:35 23.0 °F /  -5 °C 5.7 °F /  -14.6 °C 30.38in /  1028.7hPa NW 5.8mph /  9.3km/h 5.8mph /  9.3km/h 47% 0.00in /  0mm 512.0 W/m2 CLR
12:40 22.7 °F /  -5.2 °C 5.9 °F /  -14.5 °C 30.37in /  1028.3hPa NNW 8.1mph /  13km/h 8.1mph /  13km/h 48% 0.00in /  0mm 513.0 W/m2 CLR
12:45 22.4 °F /  -5.3 °C 5.6 °F /  -14.7 °C 30.37in /  1028.3hPa North 4.6mph /  7.4km/h 4.6mph /  7.4km/h 48% 0.00in /  0mm 506.0 W/m2 CLR
12:49 22.4 °F /  -5.3 °C 5.6 °F /  -14.7 °C 30.37in /  1028.3hPa NE 9.2mph /  14.8km/h 9.2mph /  14.8km/h 48% 0.00in /  0mm 504.0 W/m2 CLR
12:50 22.3 °F /  -5.4 °C 5.6 °F /  -14.7 °C 30.37in /  1028.3hPa North 3.5mph /  5.6km/h 3.5mph /  5.6km/h 48% 0.00in /  0mm 499.0 W/m2 CLR
12:55 22.5 °F /  -5.3 °C 6.2 °F /  -14.3 °C 30.37in /  1028.3hPa NNE 5.8mph /  9.3km/h 5.8mph /  9.3km/h 49% 0.00in /  0mm 494.0 W/m2 CLR
13:00 22.6 °F /  -5.2 °C 6.7 °F /  -14.1 °C 30.37in /  1028.3hPa NW 3.5mph /  5.6km/h 3.5mph /  5.6km/h 50% 0.00in /  0mm 490.0 W/m2 CLR
13:06 23.1 °F /  -4.9 °C 6.7 °F /  -14.1 °C 30.37in /  1028.3hPa NNE 5.8mph /  9.3km/h 5.8mph /  9.3km/h 49% 0.00in /  0mm 482.0 W/m2 CLR
13:13 22.9 °F /  -5.1 °C 7.0 °F /  -13.9 °C 30.37in /  1028.3hPa WSW 5.8mph /  9.3km/h 5.8mph /  9.3km/h 50% 0.00in /  0mm 478.0 W/m2 CLR
13:18 22.9 °F /  -5.1 °C 6.6 °F /  -14.1 °C 30.37in /  1028.3hPa NNE 3.5mph /  5.6km/h 3.5mph /  5.6km/h 49% 0.00in /  0mm 471.0 W/m2 CLR
13:19 22.9 °F /  -5.1 °C 6.1 °F /  -14.4 °C 30.37in /  1028.3hPa NW 4.6mph /  7.4km/h 4.6mph /  7.4km/h 48% 0.00in /  0mm 471.0 W/m2 CLR
13:25 23.2 °F /  -4.9 °C 6.0 °F /  -14.4 °C 30.37in /  1028.3hPa North 5.0mph /  8km/h 8.0mph /  12.9km/h 47% 0.00in /  0mm 462.0 W/m2 CLR
13:26 23.2 °F /  -4.9 °C 5.9 °F /  -14.5 °C 30.37in /  1028.3hPa North 8.1mph /  13km/h 8.1mph /  13km/h 47% 0.00in /  0mm 462.0 W/m2 CLR
13:31 23.4 °F /  -4.8 °C 6.6 °F /  -14.1 °C 30.37in /  1028.3hPa NNE 3.5mph /  5.6km/h 3.5mph /  5.6km/h 48% 0.00in /  0mm 454.0 W/m2 CLR
13:34 23.5 °F /  -4.7 °C 6.2 °F /  -14.3 °C 30.37in /  1028.3hPa NW 4.6mph /  7.4km/h 4.6mph /  7.4km/h 47% 0.00in /  0mm 448.0 W/m2 CLR
13:37 23.8 °F /  -4.6 °C 6.9 °F /  -13.9 °C 30.37in /  1028.3hPa WNW 6.9mph /  11.1km/h 6.9mph /  11.1km/h 48% 0.00in /  0mm 441.0 W/m2 CLR
13:42 23.9 °F /  -4.5 °C 7.0 °F /  -13.9 °C 30.37in /  1028.3hPa West 5.8mph /  9.3km/h 5.8mph /  9.3km/h 48% 0.00in /  0mm 436.0 W/m2 CLR
13:45 24.2 °F /  -4.3 °C 7.3 °F /  -13.7 °C 30.38in /  1028.7hPa NW 8.0mph /  12.9km/h 8.0mph /  12.9km/h 48% 0.00in /  0mm 429.0 W/m2 CLR
13:47 24.2 °F /  -4.3 °C 6.8 °F /  -14 °C 30.38in /  1028.7hPa WNW 10.4mph /  16.7km/h 10.4mph /  16.7km/h 47% 0.00in /  0mm 425.0 W/m2 CLR
13:52 24.3 °F /  -4.3 °C 6.5 °F /  -14.2 °C 30.38in /  1028.7hPa WNW 10.4mph /  16.7km/h 10.4mph /  16.7km/h 46% 0.00in /  0mm 418.0 W/m2 CLR
13:53 24.2 °F /  -4.3 °C 6.4 °F /  -14.2 °C 30.38in /  1028.7hPa NW 7.0mph /  11.3km/h 7.0mph /  11.3km/h 46% 0.00in /  0mm 418.0 W/m2 CLR
13:58 24.3 °F /  -4.3 °C 6.5 °F /  -14.2 °C 30.37in /  1028.3hPa NW 6.9mph /  11.1km/h 6.9mph /  11.1km/h 46% 0.00in /  0mm 410.0 W/m2 CLR
14:03 24.6 °F /  -4.1 °C 6.7 °F /  -14.1 °C 30.38in /  1028.7hPa WNW 5.8mph /  9.3km/h 5.8mph /  9.3km/h 46% 0.00in /  0mm 399.0 W/m2 CLR
14:08 24.6 °F /  -4.1 °C 6.3 °F /  -14.3 °C 30.38in /  1028.7hPa NW 4.6mph /  7.4km/h 4.6mph /  7.4km/h 45% 0.00in /  0mm 388.0 W/m2 CLR
14:11 24.5 °F /  -4.2 °C 6.2 °F /  -14.3 °C 30.38in /  1028.7hPa NNE 8.1mph /  13km/h 8.1mph /  13km/h 45% 0.00in /  0mm 383.0 W/m2 CLR
14:16 24.0 °F /  -4.4 °C 6.2 °F /  -14.3 °C 30.38in /  1028.7hPa WNW 6.9mph /  11.1km/h 6.9mph /  11.1km/h 46% 0.00in /  0mm 374.0 W/m2 CLR
14:18 24.1 °F /  -4.4 °C 6.3 °F /  -14.3 °C 30.37in /  1028.3hPa NW 5.8mph /  9.3km/h 5.8mph /  9.3km/h 46% 0.00in /  0mm 369.0 W/m2 CLR
14:23 24.6 °F /  -4.1 °C 6.7 °F /  -14.1 °C 30.37in /  1028.3hPa WNW 6.0mph /  9.7km/h 6.0mph /  9.7km/h 46% 0.00in /  0mm 360.0 W/m2 CLR
14:28 24.5 °F /  -4.2 °C 5.7 °F /  -14.6 °C 30.38in /  1028.7hPa WNW 8.1mph /  13km/h 8.1mph /  13km/h 44% 0.00in /  0mm 336.0 W/m2 CLR
14:30 24.3 °F /  -4.3 °C 5.5 °F /  -14.7 °C 30.38in /  1028.7hPa NW 8.1mph /  13km/h 8.1mph /  13km/h 44% 0.00in /  0mm 327.0 W/m2 CLR
14:36 24.1 °F /  -4.4 °C 5.3 °F /  -14.8 °C 30.38in /  1028.7hPa WNW 9.2mph /  14.8km/h 9.2mph /  14.8km/h 44% 0.00in /  0mm 304.0 W/m2 CLR
14:37 24.2 °F /  -4.3 °C 5.4 °F /  -14.8 °C 30.38in /  1028.7hPa NW 7.0mph /  11.3km/h 7.0mph /  11.3km/h 44% 0.00in /  0mm 304.0 W/m2 CLR
14:38 24.2 °F /  -4.3 °C 5.4 °F /  -14.8 °C 30.38in /  1028.7hPa NNW 6.9mph /  11.1km/h 6.9mph /  11.1km/h 44% 0.00in /  0mm 276.0 W/m2 CLR
14:43 24.0 °F /  -4.4 °C 5.7 °F /  -14.6 °C 30.37in /  1028.3hPa North 3.5mph /  5.6km/h 3.5mph /  5.6km/h 45% 0.00in /  0mm 264.0 W/m2 CLR
14:44 23.8 °F /  -4.6 °C 5.5 °F /  -14.7 °C 30.37in /  1028.3hPa North 3.5mph /  5.6km/h 3.5mph /  5.6km/h 45% 0.00in /  0mm 195.0 W/m2 CLR
14:49 23.6 °F /  -4.7 °C 5.3 °F /  -14.8 °C 30.37in /  1028.3hPa West 8.1mph /  13km/h 8.1mph /  13km/h 45% 0.00in /  0mm 229.0 W/m2 CLR
14:51 23.5 °F /  -4.7 °C 5.2 °F /  -14.9 °C 30.37in /  1028.3hPa West 3.5mph /  5.6km/h 3.5mph /  5.6km/h 45% 0.00in /  0mm 165.0 W/m2 CLR
14:53 23.4 °F /  -4.8 °C 5.6 °F /  -14.7 °C 30.37in /  1028.3hPa NW 6.0mph /  9.7km/h 6.0mph /  9.7km/h 46% 0.00in /  0mm 53.0 W/m2 CLR
14:56 23.3 °F /  -4.8 °C 5.1 °F /  -14.9 °C 30.37in /  1028.3hPa WNW 8.1mph /  13km/h 8.1mph /  13km/h 45% 0.00in /  0mm 56.0 W/m2 CLR
15:02 23.2 °F /  -4.9 °C 4.5 °F /  -15.3 °C 30.38in /  1028.7hPa NW 4.6mph /  7.4km/h 4.6mph /  7.4km/h 44% 0.00in /  0mm 79.0 W/m2 CLR
15:07 23.0 °F /  -5 °C 4.3 °F /  -15.4 °C 30.38in /  1028.7hPa West 6.9mph /  11.1km/h 6.9mph /  11.1km/h 44% 0.00in /  0mm 54.0 W/m2 CLR
15:08 22.8 °F /  -5.1 °C 4.1 °F /  -15.5 °C 30.37in /  1028.3hPa West 5.8mph /  9.3km/h 5.8mph /  9.3km/h 44% 0.00in /  0mm 79.0 W/m2 CLR
15:12 22.8 °F /  -5.1 °C 4.6 °F /  -15.2 °C 30.38in /  1028.7hPa NNE 3.5mph /  5.6km/h 3.5mph /  5.6km/h 45% 0.00in /  0mm 156.0 W/m2 CLR
15:14 22.8 °F /  -5.1 °C 4.1 °F /  -15.5 °C 30.38in /  1028.7hPa NNE 2.3mph /  3.7km/h 2.3mph /  3.7km/h 44% 0.00in /  0mm 109.0 W/m2 CLR
15:24 23.1 °F /  -4.9 °C 4.9 °F /  -15.1 °C 30.38in /  1028.7hPa NNE 4.6mph /  7.4km/h 4.6mph /  7.4km/h 45% 0.00in /  0mm 151.0 W/m2 CLR
15:25 23.1 °F /  -4.9 °C 4.9 °F /  -15.1 °C 30.38in /  1028.7hPa NNE 5.8mph /  9.3km/h 5.8mph /  9.3km/h 45% 0.00in /  0mm 155.0 W/m2 CLR
15:28 23.2 °F /  -4.9 °C 5.0 °F /  -15 °C 30.38in /  1028.7hPa NNE 3.5mph /  5.6km/h 3.5mph /  5.6km/h 45% 0.00in /  0mm 116.0 W/m2 CLR
15:34 23.2 °F /  -4.9 °C 5.0 °F /  -15 °C 30.38in /  1028.7hPa NW 5.8mph /  9.3km/h 5.8mph /  9.3km/h 45% 0.00in /  0mm 35.0 W/m2 CLR
15:35 23.1 °F /  -4.9 °C 4.9 °F /  -15.1 °C 30.38in /  1028.7hPa NW 3.5mph /  5.6km/h 3.5mph /  5.6km/h 45% 0.00in /  0mm 35.0 W/m2 CLR
15:40 22.9 °F /  -5.1 °C 4.7 °F /  -15.2 °C 30.38in /  1028.7hPa North 3.5mph /  5.6km/h 3.5mph /  5.6km/h 45% 0.00in /  0mm 58.0 W/m2 CLR
15:43 22.8 °F /  -5.1 °C 4.6 °F /  -15.2 °C 30.38in /  1028.7hPa NW 4.0mph /  6.4km/h 4.0mph /  6.4km/h 45% 0.00in /  0mm 39.0 W/m2 CLR
15:46 22.9 °F /  -5.1 °C 4.7 °F /  -15.2 °C 30.38in /  1028.7hPa WNW 6.9mph /  11.1km/h 6.9mph /  11.1km/h 45% 0.00in /  0mm 56.0 W/m2 CLR
15:48 23.0 °F /  -5 °C 4.8 °F /  -15.1 °C 30.38in /  1028.7hPa WNW 4.6mph /  7.4km/h 4.6mph /  7.4km/h 45% 0.00in /  0mm 100.0 W/m2 CLR
15:50 23.0 °F /  -5 °C 4.8 °F /  -15.1 °C 30.38in /  1028.7hPa NW 2.0mph /  3.2km/h 7.0mph /  11.3km/h 45% 0.00in /  0mm 88.0 W/m2 CLR
15:51 23.0 °F /  -5 °C 4.8 °F /  -15.1 °C 30.37in /  1028.3hPa NW 3.5mph /  5.6km/h 3.5mph /  5.6km/h 45% 0.00in /  0mm 58.0 W/m2 CLR
15:56 22.7 °F /  -5.2 °C 4.5 °F /  -15.3 °C 30.38in /  1028.7hPa NW 4.0mph /  6.4km/h 4.0mph /  6.4km/h 45% 0.00in /  0mm 46.0 W/m2 CLR
15:58 22.6 °F /  -5.2 °C 3.9 °F /  -15.6 °C 30.38in /  1028.7hPa NW 3.5mph /  5.6km/h 3.5mph /  5.6km/h 44% 0.00in /  0mm 37.0 W/m2 CLR
16:03 22.6 °F /  -5.2 °C 3.9 °F /  -15.6 °C 30.38in /  1028.7hPa NW 4.6mph /  7.4km/h 4.6mph /  7.4km/h 44% 0.00in /  0mm 42.0 W/m2 CLR
16:09 22.6 °F /  -5.2 °C 3.9 °F /  -15.6 °C 30.38in /  1028.7hPa NW 3.5mph /  5.6km/h 3.5mph /  5.6km/h 44% 0.00in /  0mm 35.0 W/m2 CLR
16:11 22.5 °F /  -5.3 °C 4.3 °F /  -15.4 °C 30.38in /  1028.7hPa NW 4.6mph /  7.4km/h 4.6mph /  7.4km/h 45% 0.00in /  0mm 32.0 W/m2 CLR
16:16 22.6 °F /  -5.2 °C 4.4 °F /  -15.3 °C 30.38in /  1028.7hPa NW 2.3mph /  3.7km/h 2.3mph /  3.7km/h 45% 0.00in /  0mm 28.0 W/m2 CLR
16:17 22.6 °F /  -5.2 °C 4.4 °F /  -15.3 °C 30.38in /  1028.7hPa NW 3.5mph /  5.6km/h 3.5mph /  5.6km/h 45% 0.00in /  0mm 28.0 W/m2 CLR
16:22 22.5 °F /  -5.3 °C 4.3 °F /  -15.4 °C 30.38in /  1028.7hPa NW 3.5mph /  5.6km/h 3.5mph /  5.6km/h 45% 0.00in /  0mm 25.0 W/m2 CLR
16:24 22.4 °F /  -5.3 °C 4.2 °F /  -15.4 °C 30.38in /  1028.7hPa NW 3.5mph /  5.6km/h 3.5mph /  5.6km/h 45% 0.00in /  0mm 23.0 W/m2 CLR
16:29 22.3 °F /  -5.4 °C 3.7 °F /  -15.7 °C 30.38in /  1028.7hPa NW 3.5mph /  5.6km/h 3.5mph /  5.6km/h 44% 0.00in /  0mm 23.0 W/m2 CLR
16:34 22.1 °F /  -5.5 °C 4.0 °F /  -15.6 °C 30.38in /  1028.7hPa NW 1.2mph /  1.9km/h 1.2mph /  1.9km/h 45% 0.00in /  0mm 19.0 W/m2 CLR
16:35 22.1 °F /  -5.5 °C 4.0 °F /  -15.6 °C 30.38in /  1028.7hPa NW 2.0mph /  3.2km/h 2.0mph /  3.2km/h 45% 0.00in /  0mm 18.0 W/m2 CLR
16:37 22.1 °F /  -5.5 °C 4.0 °F /  -15.6 °C 30.38in /  1028.7hPa NW 3.5mph /  5.6km/h 3.5mph /  5.6km/h 45% 0.00in /  0mm 16.0 W/m2 CLR
16:42 21.8 °F /  -5.7 °C 3.7 °F /  -15.7 °C 30.38in /  1028.7hPa NW 3.5mph /  5.6km/h 3.5mph /  5.6km/h 45% 0.00in /  0mm 9.0 W/m2 CLR
16:49 21.6 °F /  -5.8 °C 4.0 °F /  -15.6 °C 30.39in /  1029hPa NW 3.5mph /  5.6km/h 3.5mph /  5.6km/h 46% 0.00in /  0mm 7.0 W/m2 CLR
16:51 21.5 °F /  -5.8 °C 3.9 °F /  -15.6 °C 30.39in /  1029hPa NW 3.5mph /  5.6km/h 3.5mph /  5.6km/h 46% 0.00in /  0mm 5.0 W/m2 CLR
16:56 21.4 °F /  -5.9 °C 3.8 °F /  -15.7 °C 30.39in /  1029hPa NW 3.0mph /  4.8km/h 3.0mph /  4.8km/h 46% 0.00in /  0mm 0.0 W/m2 CLR
16:57 21.4 °F /  -5.9 °C 3.8 °F /  -15.7 °C 30.39in /  1029hPa NW 3.5mph /  5.6km/h 3.5mph /  5.6km/h 46% 0.00in /  0mm 0.0 W/m2 CLR
17:02 21.2 °F /  -6 °C 3.6 °F /  -15.8 °C 30.39in /  1029hPa NW 3.5mph /  5.6km/h 3.5mph /  5.6km/h 46% 0.00in /  0mm 0.0 W/m2 CLR
17:03 21.2 °F /  -6 °C 4.1 °F /  -15.5 °C 30.39in /  1029hPa NW 3.5mph /  5.6km/h 3.5mph /  5.6km/h 47% 0.00in /  0mm 0.0 W/m2 CLR
17:08 21.0 °F /  -6.1 °C 3.9 °F /  -15.6 °C 30.39in /  1029hPa NW 1.2mph /  1.9km/h   47% 0.00in /  0mm 0.0 W/m2 CLR
17:09 21.0 °F /  -6.1 °C 3.9 °F /  -15.6 °C 30.39in /  1029hPa NW 1.2mph /  1.9km/h   47% 0.00in /  0mm 0.0 W/m2 CLR
17:19 20.8 °F /  -6.2 °C 3.7 °F /  -15.7 °C 30.39in /  1029hPa Calm     47% 0.00in /  0mm 0.0 W/m2 CLR
17:20 20.7 °F /  -6.3 °C 4.1 °F /  -15.5 °C 30.39in /  1029hPa Calm     48% 0.00in /  0mm 0.0 W/m2 CLR
17:22 20.7 °F /  -6.3 °C 4.1 °F /  -15.5 °C 30.39in /  1029hPa NW 2.0mph /  3.2km/h 2.0mph /  3.2km/h 48% 0.00in /  0mm 0.0 W/m2 CLR
17:27 20.6 °F /  -6.3 °C 4.4 °F /  -15.3 °C 30.39in /  1029hPa Calm     49% 0.00in /  0mm 0.0 W/m2 CLR
17:32 20.5 °F /  -6.4 °C 4.8 °F /  -15.1 °C 30.39in /  1029hPa Calm     50% 0.00in /  0mm 0.0 W/m2 CLR
17:37 20.3 °F /  -6.5 °C 4.6 °F /  -15.2 °C 30.39in /  1029hPa Calm     50% 0.00in /  0mm 0.0 W/m2 CLR
17:40 20.2 °F /  -6.6 °C 4.5 °F /  -15.3 °C 30.39in /  1029hPa NW 1.2mph /  1.9km/h   50% 0.00in /  0mm 0.0 W/m2 CLR
17:44 20.1 °F /  -6.6 °C 4.4 °F /  -15.3 °C 30.39in /  1029hPa NW 1.0mph /  1.6km/h   50% 0.00in /  0mm 0.0 W/m2 CLR
17:53 19.9 °F /  -6.7 °C 4.7 °F /  -15.2 °C 30.40in /  1029.3hPa NW 1.2mph /  1.9km/h 1.2mph /  1.9km/h 51% 0.00in /  0mm 0.0 W/m2 CLR
17:58 19.7 °F /  -6.8 °C 4.9 °F /  -15.1 °C 30.40in /  1029.3hPa NW 1.2mph /  1.9km/h 1.2mph /  1.9km/h 52% 0.00in /  0mm 0.0 W/m2 CLR
18:04 19.6 °F /  -6.9 °C 4.8 °F /  -15.1 °C 30.40in /  1029.3hPa Calm     52% 0.00in /  0mm 0.0 W/m2 CLR
18:06 19.5 °F /  -6.9 °C 4.7 °F /  -15.2 °C 30.40in /  1029.3hPa NW 1.2mph /  1.9km/h 1.2mph /  1.9km/h 52% 0.00in /  0mm 0.0 W/m2 CLR
18:10 19.4 °F /  -7 °C 4.6 °F /  -15.2 °C 30.40in /  1029.3hPa Calm   2.0mph /  3.2km/h 52% 0.00in /  0mm 0.0 W/m2 CLR
18:15 19.3 °F /  -7.1 °C 4.9 °F /  -15.1 °C 30.40in /  1029.3hPa NW 1.2mph /  1.9km/h 1.2mph /  1.9km/h 53% 0.00in /  0mm 0.0 W/m2 CLR
18:17 19.2 °F /  -7.1 °C 4.8 °F /  -15.1 °C 30.40in /  1029.3hPa NW 1.2mph /  1.9km/h   53% 0.00in /  0mm 0.0 W/m2 CLR
18:21 19.1 °F /  -7.2 °C 4.8 °F /  -15.1 °C 30.40in /  1029.3hPa Calm     53% 0.00in /  0mm 0.0 W/m2 CLR
18:26 19.1 °F /  -7.2 °C 5.2 °F /  -14.9 °C 30.40in /  1029.3hPa Calm     54% 0.00in /  0mm 0.0 W/m2 CLR
18:31 19.0 °F /  -7.2 °C 4.7 °F /  -15.2 °C 30.41in /  1029.7hPa Calm     53% 0.00in /  0mm 0.0 W/m2 CLR
18:32 18.9 °F /  -7.3 °C 4.6 °F /  -15.2 °C 30.41in /  1029.7hPa Calm     53% 0.00in /  0mm 0.0 W/m2 CLR
18:37 18.8 °F /  -7.3 °C 4.9 °F /  -15.1 °C 30.41in /  1029.7hPa Calm     54% 0.00in /  0mm 0.0 W/m2 CLR
18:40 18.7 °F /  -7.4 °C 4.8 °F /  -15.1 °C 30.41in /  1029.7hPa Calm     54% 0.00in /  0mm 0.0 W/m2 CLR
18:41 18.7 °F /  -7.4 °C 4.8 °F /  -15.1 °C 30.41in /  1029.7hPa Calm     54% 0.00in /  0mm 0.0 W/m2 CLR
18:46 18.7 °F /  -7.4 °C 5.2 °F /  -14.9 °C 30.41in /  1029.7hPa Calm     55% 0.00in /  0mm 0.0 W/m2 CLR
18:51 18.6 °F /  -7.4 °C 5.1 °F /  -14.9 °C 30.41in /  1029.7hPa Calm     55% 0.00in /  0mm 0.0 W/m2 CLR
18:55 18.5 °F /  -7.5 °C 5.0 °F /  -15 °C 30.41in /  1029.7hPa Calm     55% 0.00in /  0mm 0.0 W/m2 CLR
18:57 18.4 °F /  -7.6 °C 4.9 °F /  -15.1 °C 30.41in /  1029.7hPa NW 1.2mph /  1.9km/h   55% 0.00in /  0mm 0.0 W/m2 CLR
19:02 18.3 °F /  -7.6 °C 4.8 °F /  -15.1 °C 30.41in /  1029.7hPa NW 1.0mph /  1.6km/h   55% 0.00in /  0mm 0.0 W/m2 CLR
19:07 18.2 °F /  -7.7 °C 4.7 °F /  -15.2 °C 30.41in /  1029.7hPa Calm     55% 0.00in /  0mm 0.0 W/m2 CLR
19:11 18.1 °F /  -7.7 °C 5.0 °F /  -15 °C 30.41in /  1029.7hPa Calm     56% 0.00in /  0mm 0.0 W/m2 CLR
19:16 18.0 °F /  -7.8 °C 5.3 °F /  -14.8 °C 30.41in /  1029.7hPa Calm     57% 0.00in /  0mm 0.0 W/m2 CLR
19:18 17.9 °F /  -7.8 °C 5.2 °F /  -14.9 °C 30.41in /  1029.7hPa NW 1.0mph /  1.6km/h 1.0mph /  1.6km/h 57% 0.00in /  0mm 0.0 W/m2 CLR
19:23 17.8 °F /  -7.9 °C 5.5 °F /  -14.7 °C 30.42in /  1030hPa Calm     58% 0.00in /  0mm 0.0 W/m2 CLR
19:28 17.7 °F /  -7.9 °C 5.4 °F /  -14.8 °C 30.42in /  1030hPa Calm   0.1mph /  0.2km/h 58% 0.00in /  0mm 0.0 W/m2 CLR
19:33 17.7 °F /  -7.9 °C 5.8 °F /  -14.6 °C 30.42in /  1030hPa Calm     59% 0.00in /  0mm 0.0 W/m2 CLR
19:35 17.7 °F /  -7.9 °C 5.8 °F /  -14.6 °C 30.41in /  1029.7hPa Calm     59% 0.00in /  0mm 0.0 W/m2 CLR
19:40 17.6 °F /  -8 °C 5.3 °F /  -14.8 °C 30.42in /  1030hPa Calm     58% 0.00in /  0mm 0.0 W/m2 CLR
19:45 17.5 °F /  -8.1 °C 5.2 °F /  -14.9 °C 30.42in /  1030hPa Calm     58% 0.00in /  0mm 0.0 W/m2 CLR
19:47 17.4 °F /  -8.1 °C 5.5 °F /  -14.7 °C 30.42in /  1030hPa Calm     59% 0.00in /  0mm 0.0 W/m2 CLR
19:52 17.3 °F /  -8.2 °C 5.8 °F /  -14.6 °C 30.42in /  1030hPa Calm     60% 0.00in /  0mm 0.0 W/m2 CLR
19:54 17.2 °F /  -8.2 °C 5.7 °F /  -14.6 °C 30.42in /  1030hPa Calm     60% 0.00in /  0mm 0.0 W/m2 CLR
19:59 17.2 °F /  -8.2 °C 5.7 °F /  -14.6 °C 30.42in /  1030hPa Calm     60% 0.00in /  0mm 0.0 W/m2 CLR
20:04 17.2 °F /  -8.2 °C 5.3 °F /  -14.8 °C 30.42in /  1030hPa NW 1.2mph /  1.9km/h   59% 0.00in /  0mm 0.0 W/m2 CLR
20:10 17.0 °F /  -8.3 °C 5.5 °F /  -14.7 °C 30.42in /  1030hPa Calm     60% 0.00in /  0mm 0.0 W/m2 CLR
20:15 16.9 °F /  -8.4 °C 5.4 °F /  -14.8 °C 30.42in /  1030hPa Calm     60% 0.00in /  0mm 0.0 W/m2 CLR
20:20 16.8 °F /  -8.4 °C 5.7 °F /  -14.6 °C 30.42in /  1030hPa NW 1.2mph /  1.9km/h   61% 0.00in /  0mm 0.0 W/m2 CLR
20:23 16.7 °F /  -8.5 °C 5.6 °F /  -14.7 °C 30.42in /  1030hPa NW 1.0mph /  1.6km/h 1.0mph /  1.6km/h 61% 0.00in /  0mm 0.0 W/m2 CLR
20:28 16.5 °F /  -8.6 °C 5.7 °F /  -14.6 °C 30.43in /  1030.4hPa Calm     62% 0.00in /  0mm 0.0 W/m2 CLR
20:31 16.5 °F /  -8.6 °C 5.7 °F /  -14.6 °C 30.42in /  1030hPa NW 1.2mph /  1.9km/h   62% 0.00in /  0mm 0.0 W/m2 CLR
20:36 16.4 °F /  -8.7 °C 5.6 °F /  -14.7 °C 30.42in /  1030hPa NW 1.2mph /  1.9km/h   62% 0.00in /  0mm 0.0 W/m2 CLR
20:41 16.4 °F /  -8.7 °C 5.6 °F /  -14.7 °C 30.42in /  1030hPa Calm     62% 0.00in /  0mm 0.0 W/m2 CLR
20:46 16.3 °F /  -8.7 °C 5.5 °F /  -14.7 °C 30.42in /  1030hPa Calm     62% 0.00in /  0mm 0.0 W/m2 CLR
20:51 16.3 °F /  -8.7 °C 6.2 °F /  -14.3 °C 30.42in /  1030hPa Calm     64% 0.00in /  0mm 0.0 W/m2 CLR
20:53 16.2 °F /  -8.8 °C 6.5 °F /  -14.2 °C 30.42in /  1030hPa Calm     65% 0.00in /  0mm 0.0 W/m2 CLR
20:58 16.2 °F /  -8.8 °C 6.5 °F /  -14.2 °C 30.42in /  1030hPa Calm     65% 0.00in /  0mm 0.0 W/m2 CLR
21:00 16.2 °F /  -8.8 °C 6.5 °F /  -14.2 °C 30.42in /  1030hPa Calm     65% 0.00in /  0mm 0.0 W/m2 CLR
21:01 16.2 °F /  -8.8 °C 6.8 °F /  -14 °C 30.42in /  1030hPa Calm     66% 0.00in /  0mm 0.0 W/m2 CLR
21:06 16.1 °F /  -8.8 °C 6.1 °F /  -14.4 °C 30.43in /  1030.4hPa Calm     64% 0.00in /  0mm 0.0 W/m2 CLR
21:08 16.0 °F /  -8.9 °C 5.6 °F /  -14.7 °C 30.42in /  1030hPa Calm     63% 0.00in /  0mm 0.0 W/m2 CLR
21:13 16.0 °F /  -8.9 °C 5.6 °F /  -14.7 °C 30.42in /  1030hPa Calm     63% 0.00in /  0mm 0.0 W/m2 CLR
21:14 15.9 °F /  -8.9 °C 5.5 °F /  -14.7 °C 30.42in /  1030hPa Calm     63% 0.00in /  0mm 0.0 W/m2 CLR
21:16 15.9 °F /  -8.9 °C 5.5 °F /  -14.7 °C 30.42in /  1030hPa Calm     63% 0.00in /  0mm 0.0 W/m2 CLR
21:21 15.8 °F /  -9 °C 5.4 °F /  -14.8 °C 30.42in /  1030hPa Calm     63% 0.00in /  0mm 0.0 W/m2 CLR
21:24 15.8 °F /  -9 °C 5.4 °F /  -14.8 °C 30.42in /  1030hPa Calm     63% 0.00in /  0mm 0.0 W/m2 CLR
21:29 15.8 °F /  -9 °C 5.4 °F /  -14.8 °C 30.42in /  1030hPa Calm     63% 0.00in /  0mm 0.0 W/m2 CLR
21:33 15.7 °F /  -9.1 °C 5.7 °F /  -14.6 °C 30.42in /  1030hPa Calm     64% 0.00in /  0mm 0.0 W/m2 CLR
21:38 15.8 °F /  -9 °C 6.1 °F /  -14.4 °C 30.42in /  1030hPa Calm     65% 0.00in /  0mm 0.0 W/m2 CLR
21:39 15.8 °F /  -9 °C 6.1 °F /  -14.4 °C 30.42in /  1030hPa Calm     65% 0.00in /  0mm 0.0 W/m2 CLR
21:40 15.8 °F /  -9 °C 6.1 °F /  -14.4 °C 30.42in /  1030hPa Calm     65% 0.00in /  0mm 0.0 W/m2 CLR
21:45 15.8 °F /  -9 °C 6.4 °F /  -14.2 °C 30.42in /  1030hPa Calm     66% 0.00in /  0mm 0.0 W/m2 CLR
21:48 15.7 °F /  -9.1 °C 6.3 °F /  -14.3 °C 30.43in /  1030.4hPa Calm     66% 0.00in /  0mm 0.0 W/m2 CLR
21:53 15.7 °F /  -9.1 °C 6.7 °F /  -14.1 °C 30.43in /  1030.4hPa Calm     67% 0.00in /  0mm 0.0 W/m2 CLR
21:54 15.7 °F /  -9.1 °C 6.7 °F /  -14.1 °C 30.43in /  1030.4hPa Calm     67% 0.00in /  0mm 0.0 W/m2 CLR
21:59 15.7 °F /  -9.1 °C 6.7 °F /  -14.1 °C 30.43in /  1030.4hPa Calm     67% 0.00in /  0mm 0.0 W/m2 CLR
22:04 15.8 °F /  -9 °C 6.8 °F /  -14 °C 30.43in /  1030.4hPa Calm     67% 0.00in /  0mm 0.0 W/m2 BKN
22:05 15.8 °F /  -9 °C 6.8 °F /  -14 °C 30.43in /  1030.4hPa Calm     67% 0.00in /  0mm 0.0 W/m2 BKN
22:10 15.9 °F /  -8.9 °C 7.2 °F /  -13.8 °C 30.43in /  1030.4hPa NW 1.2mph /  1.9km/h   68% 0.00in /  0mm 0.0 W/m2 BKN
22:13 15.9 °F /  -8.9 °C 7.2 °F /  -13.8 °C 30.43in /  1030.4hPa Calm     68% 0.00in /  0mm 0.0 W/m2 BKN
22:18 16.1 °F /  -8.8 °C 7.4 °F /  -13.7 °C 30.42in /  1030hPa Calm     68% 0.00in /  0mm 0.0 W/m2 BKN
22:20 16.1 °F /  -8.8 °C 7.4 °F /  -13.7 °C 30.42in /  1030hPa Calm     68% 0.00in /  0mm 0.0 W/m2 BKN
22:23 16.2 °F /  -8.8 °C 7.2 °F /  -13.8 °C 30.42in /  1030hPa Calm     67% 0.00in /  0mm 0.0 W/m2 BKN
22:27 16.3 °F /  -8.7 °C 7.3 °F /  -13.7 °C 30.42in /  1030hPa Calm     67% 0.00in /  0mm 0.0 W/m2 BKN
22:32 16.4 °F /  -8.7 °C 7.0 °F /  -13.9 °C 30.42in /  1030hPa Calm     66% 0.00in /  0mm 0.0 W/m2 BKN
22:33 16.4 °F /  -8.7 °C 7.0 °F /  -13.9 °C 30.42in /  1030hPa Calm     66% 0.00in /  0mm 0.0 W/m2 BKN
22:35 16.5 °F /  -8.6 °C 7.1 °F /  -13.8 °C 30.42in /  1030hPa Calm     66% 0.00in /  0mm 0.0 W/m2 BKN
22:40 16.7 °F /  -8.5 °C 8.9 °F /  -12.8 °C 30.42in /  1030hPa Calm     71% 0.00in /  0mm 0.0 W/m2 BKN
22:45 16.7 °F /  -8.5 °C 9.8 °F /  -12.3 °C 30.42in /  1030hPa Calm     74% 0.00in /  0mm 0.0 W/m2 BKN
22:46 16.7 °F /  -8.5 °C 10.1 °F /  -12.2 °C 30.42in /  1030hPa Calm     75% 0.00in /  0mm 0.0 W/m2 BKN
22:51 16.7 °F /  -8.5 °C 10.1 °F /  -12.2 °C 30.42in /  1030hPa Calm     75% 0.00in /  0mm 0.0 W/m2 BKN
22:54 16.6 °F /  -8.6 °C 10.1 °F /  -12.2 °C 30.42in /  1030hPa Calm     75% 0.00in /  0mm 0.0 W/m2 BKN
22:59 16.7 °F /  -8.5 °C 10.1 °F /  -12.2 °C 30.42in /  1030hPa Calm     75% 0.00in /  0mm 0.0 W/m2 BKN
23:00 16.7 °F /  -8.5 °C 10.4 °F /  -12 °C 30.42in /  1030hPa Calm     76% 0.00in /  0mm 0.0 W/m2 BKN
23:05 16.8 °F /  -8.4 °C 9.9 °F /  -12.3 °C 30.42in /  1030hPa Calm     74% 0.00in /  0mm 0.0 W/m2 OVC
23:08 16.8 °F /  -8.4 °C 9.9 °F /  -12.3 °C 30.42in /  1030hPa Calm     74% 0.00in /  0mm 0.0 W/m2 OVC
23:11 16.9 °F /  -8.4 °C 10.3 °F /  -12.1 °C 30.42in /  1030hPa Calm     75% 0.00in /  0mm 0.0 W/m2 OVC
23:16 17.0 °F /  -8.3 °C 10.7 °F /  -11.8 °C 30.42in /  1030hPa Calm     76% 0.00in /  0mm 0.0 W/m2 OVC
23:19 17.0 °F /  -8.3 °C 10.7 °F /  -11.8 °C 30.41in /  1029.7hPa Calm     76% 0.00in /  0mm 0.0 W/m2 OVC
23:24 17.1 °F /  -8.3 °C 10.8 °F /  -11.8 °C 30.41in /  1029.7hPa Calm     76% 0.00in /  0mm 0.0 W/m2 OVC
23:25 17.1 °F /  -8.3 °C 10.8 °F /  -11.8 °C 30.41in /  1029.7hPa Calm     76% 0.00in /  0mm 0.0 W/m2 OVC
23:30 17.2 °F /  -8.2 °C 10.9 °F /  -11.7 °C 30.42in /  1030hPa Calm     76% 0.00in /  0mm 0.0 W/m2 OVC
23:35 17.3 °F /  -8.2 °C 11.0 °F /  -11.7 °C 30.42in /  1030hPa Calm     76% 0.00in /  0mm 0.0 W/m2 OVC
23:40 17.4 °F /  -8.1 °C 10.2 °F /  -12.1 °C 30.42in /  1030hPa Calm     73% 0.00in /  0mm 0.0 W/m2 OVC
23:45 17.5 °F /  -8.1 °C 8.7 °F /  -12.9 °C 30.41in /  1029.7hPa Calm     68% 0.00in /  0mm 0.0 W/m2 OVC
23:49 17.6 °F /  -8 °C 8.5 °F /  -13.1 °C 30.41in /  1029.7hPa Calm     67% 0.00in /  0mm 0.0 W/m2 OVC
23:50 17.6 °F /  -8 °C 8.5 °F /  -13.1 °C 30.41in /  1029.7hPa Calm     67% 0.00in /  0mm 0.0 W/m2 OVC
23:55 17.7 °F /  -7.9 °C 8.6 °F /  -13 °C 30.42in /  1030hPa NW 1.2mph /  1.9km/h   67% 0.00in /  0mm 0.0 W/m2 OVC
Bruceton, TN. NWS Weather Forecast
Compliments of:  Weather Underground - 6 mb

Interesting Weather Facts
AVERAGE YEARLY TEMPERATURE
The average yearly temperature of New York, St. Louis and San Francisco differs by only 1.8°F.